Time;durP1;ratioP1;P1;durP2;ratioP2;P2;SDS_P1;SDS_P2;PMS_P1;PMS_P2;Temp;Humidity;BMP_temperature;BMP_pressure;BME280_temperature;BME280_humidity;BME280_pressure;Samples;Min_cycle;Max_cycle;Signal;HPM_P1;HPM_P2
2023/09/13 00:00:48;;;;;;;16.50;12.65;;;23.10;50.80;;;;;;5047098;27;116074;-78
2023/09/13 00:03:15;;;;;;;15.55;11.95;;;23.00;52.50;;;;;;5047759;27;114536;-78
2023/09/13 00:05:42;;;;;;;17.08;11.77;;;22.90;52.20;;;;;;5048219;27;114331;-78
2023/09/13 00:08:09;;;;;;;16.50;11.65;;;22.90;52.50;;;;;;5028760;27;114965;-78
2023/09/13 00:10:37;;;;;;;18.15;11.52;;;22.80;52.00;;;;;;5047100;27;114657;-78
2023/09/13 00:13:04;;;;;;;13.98;11.65;;;22.80;51.00;;;;;;5029370;27;114374;-78
2023/09/13 00:15:31;;;;;;;17.92;11.38;;;22.80;51.40;;;;;;5029556;27;114494;-78
2023/09/13 00:18:01;;;;;;;13.35;11.93;;;22.70;51.80;;;;;;5046158;27;115146;-79
2023/09/13 00:20:29;;;;;;;14.88;11.82;;;22.60;52.40;;;;;;5047056;27;114687;-79
2023/09/13 00:22:56;;;;;;;15.45;11.82;;;22.60;52.20;;;;;;5047965;27;114239;-80
2023/09/13 00:25:23;;;;;;;17.02;13.07;;;22.50;52.50;;;;;;5048299;27;114333;-79
2023/09/13 00:27:50;;;;;;;14.63;11.27;;;22.50;52.10;;;;;;5029253;27;115034;-79
2023/09/13 00:30:17;;;;;;;12.18;10.75;;;22.40;52.10;;;;;;5046807;27;115354;-79
2023/09/13 00:32:44;;;;;;;13.32;10.80;;;22.40;53.60;;;;;;5047885;27;114252;-79
2023/09/13 00:35:11;;;;;;;17.33;11.63;;;22.50;53.90;;;;;;5029654;27;114203;-79
2023/09/13 00:37:39;;;;;;;20.65;12.43;;;22.50;53.30;;;;;;5028180;27;116688;-79
2023/09/13 00:40:07;;;;;;;14.75;11.18;;;22.50;52.90;;;;;;5027833;27;116774;-79
2023/09/13 00:42:35;;;;;;;15.20;11.93;;;22.50;53.60;;;;;;5012761;27;114179;-79
2023/09/13 00:45:03;;;;;;;13.45;11.52;;;22.50;52.80;;;;;;5029522;27;114279;-80
2023/09/13 00:47:30;;;;;;;15.27;11.73;;;22.60;53.70;;;;;;5028507;27;117748;-78
2023/09/13 00:49:57;;;;;;;18.33;12.55;;;22.70;53.50;;;;;;5028578;27;114865;-79
2023/09/13 00:52:26;;;;;;;14.85;11.10;;;22.80;52.30;;;;;;5047645;27;114174;-79
2023/09/13 00:54:53;;;;;;;15.07;12.02;;;22.80;53.40;;;;;;5012275;27;114280;-79
2023/09/13 00:57:21;;;;;;;13.32;11.68;;;22.90;52.80;;;;;;5011849;27;115431;-79
2023/09/13 00:59:48;;;;;;;19.50;12.68;;;22.90;53.00;;;;;;5028661;27;114753;-79
2023/09/13 01:02:15;;;;;;;17.40;11.82;;;22.90;51.90;;;;;;5029322;27;114317;-79
2023/09/13 01:04:42;;;;;;;13.18;11.35;;;22.90;51.80;;;;;;5029279;27;114344;-78
2023/09/13 01:07:09;;;;;;;15.00;11.80;;;22.90;52.00;;;;;;5028768;27;115061;-78
2023/09/13 01:09:36;;;;;;;15.00;11.43;;;22.90;51.50;;;;;;5028376;27;114502;-79
2023/09/13 01:12:04;;;;;;;15.05;11.27;;;22.80;51.30;;;;;;5029287;27;114283;-78
2023/09/13 01:14:31;;;;;;;15.60;11.15;;;22.70;51.30;;;;;;5029188;27;114210;-78
2023/09/13 01:17:07;;;;;;;12.63;10.73;;;22.60;51.10;;;;;;4991369;28;114935;-78
2023/09/13 01:20:11;;;;;;;15.38;11.68;;;22.40;53.00;;;;;;5026617;27;115806;-78
2023/09/13 01:23:16;;;;;;;14.57;11.80;;;22.30;51.90;;;;;;5030559;27;114383;-78
2023/09/13 01:25:59;;;;;;;16.73;12.15;;;22.20;51.80;;;;;;5030313;28;114459;-79
2023/09/13 01:28:32;;;;;;;19.88;11.43;;;22.00;52.40;;;;;;5011574;28;114838;-78
2023/09/13 01:31:02;;;;;;;13.53;10.77;;;21.90;53.10;;;;;;5028491;28;114643;-78
2023/09/13 01:33:30;;;;;;;12.18;10.82;;;21.90;52.40;;;;;;5029145;28;114355;-78
2023/09/13 01:35:57;;;;;;;15.00;11.13;;;21.90;54.00;;;;;;5030835;27;114562;-78
2023/09/13 01:38:24;;;;;;;16.85;11.60;;;21.90;54.10;;;;;;5029066;28;114912;-78
2023/09/13 01:40:52;;;;;;;14.25;11.27;;;21.90;53.70;;;;;;5028040;28;114552;-78
2023/09/13 01:43:19;;;;;;;13.20;10.18;;;22.00;53.80;;;;;;5030041;28;114060;-78
2023/09/13 01:45:47;;;;;;;16.73;10.75;;;22.10;54.30;;;;;;5013193;28;114462;-78
2023/09/13 01:48:14;;;;;;;15.20;11.75;;;22.10;52.80;;;;;;5028880;28;115010;-78
2023/09/13 01:50:42;;;;;;;15.77;10.90;;;22.20;52.10;;;;;;5011272;28;114569;-79
2023/09/13 01:53:09;;;;;;;15.27;11.43;;;22.10;52.60;;;;;;5011947;28;114166;-78
2023/09/13 01:55:36;;;;;;;20.40;11.70;;;22.20;52.50;;;;;;5028985;28;114259;-78
2023/09/13 01:58:03;;;;;;;17.02;11.45;;;22.20;52.80;;;;;;5010414;28;115061;-78
2023/09/13 02:00:30;;;;;;;14.20;10.07;;;22.20;52.60;;;;;;5028504;28;114647;-78
2023/09/13 02:02:57;;;;;;;14.38;10.90;;;22.30;53.20;;;;;;5030065;27;114072;-78
2023/09/13 02:05:24;;;;;;;16.10;10.68;;;22.30;53.30;;;;;;5028327;28;114291;-79
2023/09/13 02:07:52;;;;;;;13.20;11.15;;;22.30;53.30;;;;;;5027273;28;117079;-79
2023/09/13 02:10:19;;;;;;;14.48;10.82;;;22.30;52.00;;;;;;5028720;28;114816;-78
2023/09/13 02:12:46;;;;;;;14.95;11.25;;;22.40;52.50;;;;;;5028113;28;114265;-79
2023/09/13 02:15:13;;;;;;;12.18;10.98;;;22.40;52.60;;;;;;5030944;27;114332;-79
2023/09/13 02:17:41;;;;;;;13.45;10.57;;;22.50;53.30;;;;;;5048837;27;114940;-79
2023/09/13 02:20:11;;;;;;;11.68;10.32;;;22.50;53.20;;;;;;4997748;27;114987;-78
2023/09/13 02:22:38;;;;;;;16.20;11.40;;;22.60;53.00;;;;;;5031437;27;114061;-79
2023/09/13 02:25:05;;;;;;;17.60;11.80;;;22.60;51.50;;;;;;5050170;27;114397;-79
2023/09/13 02:27:34;;;;;;;14.38;10.10;;;22.50;51.70;;;;;;5049527;27;115516;-78
2023/09/13 02:30:04;;;;;;;14.18;11.27;;;22.40;52.60;;;;;;5030469;27;114667;-78
2023/09/13 02:32:31;;;;;;;17.10;11.82;;;22.40;52.80;;;;;;5015313;27;114087;-79
2023/09/13 02:34:59;;;;;;;12.68;10.50;;;22.50;51.70;;;;;;5049477;27;114261;-79
2023/09/13 02:37:27;;;;;;;12.60;10.00;;;22.40;52.70;;;;;;5048283;27;114900;-78
2023/09/13 02:39:57;;;;;;;16.38;10.40;;;22.50;53.00;;;;;;5030360;27;114788;-78
2023/09/13 02:42:24;;;;;;;16.02;9.70;;;22.50;51.80;;;;;;5031932;27;114222;-79
2023/09/13 02:44:52;;;;;;;15.15;10.98;;;22.50;53.10;;;;;;5015379;27;114428;-78
2023/09/13 02:47:19;;;;;;;18.38;11.38;;;22.50;51.90;;;;;;4995886;27;117115;-78
2023/09/13 02:49:46;;;;;;;13.40;10.52;;;22.50;51.10;;;;;;4997281;27;114734;-78
2023/09/13 02:52:14;;;;;;;14.82;11.43;;;22.30;52.70;;;;;;5014241;27;114170;-79
2023/09/13 02:54:41;;;;;;;14.43;10.50;;;22.30;51.80;;;;;;5031296;27;114073;-78
2023/09/13 02:57:10;;;;;;;12.10;10.45;;;22.30;53.00;;;;;;5029242;27;116943;-78
2023/09/13 02:59:37;;;;;;;13.07;10.18;;;22.40;52.20;;;;;;5029965;27;115018;-79
2023/09/13 03:02:04;;;;;;;15.38;9.93;;;22.50;52.10;;;;;;5031153;27;114158;-78
2023/09/13 03:04:32;;;;;;;13.43;10.10;;;22.50;53.00;;;;;;5031442;27;114416;-78
2023/09/13 03:06:59;;;;;;;11.43;10.23;;;22.50;52.90;;;;;;5030500;27;114942;-79
2023/09/13 03:09:26;;;;;;;12.50;9.52;;;22.60;52.50;;;;;;5030077;27;114687;-78
2023/09/13 03:11:53;;;;;;;13.88;10.68;;;22.70;52.80;;;;;;5030853;27;114225;-79
2023/09/13 03:14:20;;;;;;;12.80;10.25;;;22.70;50.90;;;;;;5014183;27;114135;-78
2023/09/13 03:16:48;;;;;;;12.10;9.48;;;22.70;51.30;;;;;;5012404;27;115497;-78
2023/09/13 03:19:15;;;;;;;13.45;9.95;;;22.60;52.20;;;;;;5048442;27;114651;-78
2023/09/13 03:21:44;;;;;;;14.05;10.13;;;22.60;52.40;;;;;;5014256;27;114428;-79
2023/09/13 03:24:11;;;;;;;15.30;10.73;;;22.60;52.20;;;;;;5030707;27;114253;-78
2023/09/13 03:26:38;;;;;;;14.93;10.95;;;22.60;51.60;;;;;;4996529;27;115017;-78
2023/09/13 03:29:06;;;;;;;13.93;10.55;;;22.60;50.70;;;;;;5029411;27;114835;-78
2023/09/13 03:31:36;;;;;;;13.10;10.20;;;22.40;50.80;;;;;;5014254;27;114652;-78
2023/09/13 03:34:08;;;;;;;16.17;10.88;;;22.20;52.10;;;;;;5015004;27;114230;-78
2023/09/13 03:36:35;;;;;;;13.07;10.55;;;22.20;51.10;;;;;;5028638;27;117267;-78
2023/09/13 03:39:03;;;;;;;12.95;10.18;;;22.20;51.70;;;;;;5046776;27;114727;-78
2023/09/13 03:41:31;;;;;;;17.30;11.02;;;22.10;52.60;;;;;;5029668;27;114220;-78
2023/09/13 03:43:58;;;;;;;13.65;10.35;;;22.10;52.30;;;;;;4996215;27;114473;-79
2023/09/13 03:46:27;;;;;;;14.77;9.85;;;22.20;52.10;;;;;;5012903;27;115126;-79
2023/09/13 03:48:56;;;;;;;13.07;9.80;;;22.20;53.20;;;;;;4980309;27;117904;-79
2023/09/13 03:51:24;;;;;;;12.35;9.90;;;22.20;52.90;;;;;;5030332;27;114390;-79
2023/09/13 03:53:51;;;;;;;11.85;9.57;;;22.10;52.60;;;;;;5048692;27;114370;-79
2023/09/13 03:56:18;;;;;;;13.02;9.70;;;22.10;53.30;;;;;;5012742;27;115007;-79
2023/09/13 03:58:45;;;;;;;14.80;10.25;;;22.10;53.40;;;;;;5029808;27;114864;-79
2023/09/13 04:01:12;;;;;;;11.80;10.45;;;22.10;51.90;;;;;;4997006;27;114186;-79
2023/09/13 04:03:39;;;;;;;13.70;9.43;;;22.20;52.50;;;;;;5048411;27;114218;-79
2023/09/13 04:06:06;;;;;;;15.27;10.32;;;22.20;53.10;;;;;;5012322;27;114902;-78
2023/09/13 04:08:34;;;;;;;16.63;11.05;;;22.20;51.70;;;;;;5029092;27;115153;-79
2023/09/13 04:11:02;;;;;;;16.20;10.20;;;22.20;51.70;;;;;;5030022;27;114255;-79
2023/09/13 04:13:32;;;;;;;15.68;10.13;;;22.10;52.20;;;;;;5048505;27;114248;-79
2023/09/13 04:16:08;;;;;;;15.07;10.68;;;22.10;52.70;;;;;;5046871;27;115219;-79
2023/09/13 04:18:36;;;;;;;15.48;10.20;;;22.10;51.50;;;;;;4995870;27;115200;-79
2023/09/13 04:21:04;;;;;;;13.90;10.48;;;22.00;52.40;;;;;;5013678;27;114448;-79
2023/09/13 04:23:31;;;;;;;12.68;9.82;;;22.10;52.60;;;;;;5048292;27;114114;-78
2023/09/13 04:25:58;;;;;;;14.73;10.38;;;22.20;51.90;;;;;;5029104;27;114883;-79
2023/09/13 04:28:26;;;;;;;19.25;10.23;;;22.20;52.40;;;;;;5031396;27;116037;-79
2023/09/13 04:30:53;;;;;;;11.80;9.52;;;22.20;50.70;;;;;;5052894;27;114263;-78
2023/09/13 04:33:56;;;;;;;14.13;9.98;;;22.00;52.90;;;;;;5033697;27;114067;-79
2023/09/13 04:36:28;;;;;;;13.85;9.18;;;22.00;53.10;;;;;;5009132;27;115112;-79
2023/09/13 04:38:57;;;;;;;12.68;10.00;;;22.10;53.30;;;;;;5028794;27;114582;-79
2023/09/13 04:41:24;;;;;;;13.38;10.65;;;22.20;53.20;;;;;;5030316;27;114404;-79
2023/09/13 04:43:51;;;;;;;15.73;10.23;;;22.20;51.10;;;;;;5048624;27;114287;-78
2023/09/13 04:46:19;;;;;;;15.10;10.90;;;22.30;52.00;;;;;;5028430;27;114924;-78
2023/09/13 04:48:46;;;;;;;17.27;10.90;;;22.30;50.70;;;;;;5012028;27;114668;-79
2023/09/13 04:51:14;;;;;;;22.50;10.52;;;22.20;50.40;;;;;;5012999;27;114493;-79
2023/09/13 04:53:41;;;;;;;13.15;10.13;;;22.10;51.60;;;;;;5031549;27;114206;-79
2023/09/13 04:56:09;;;;;;;17.38;11.02;;;22.00;52.50;;;;;;5015650;27;114811;-78
2023/09/13 04:58:41;;;;;;;13.85;10.70;;;22.10;50.70;;;;;;5031997;27;114582;-78
2023/09/13 05:01:09;;;;;;;16.63;10.13;;;22.10;51.90;;;;;;5032913;27;114369;-79
2023/09/13 05:03:36;;;;;;;16.65;10.57;;;22.20;52.00;;;;;;5033031;27;114481;-79
2023/09/13 05:06:04;;;;;;;12.35;10.10;;;22.30;51.50;;;;;;5049937;27;115069;-78
2023/09/13 05:08:36;;;;;;;18.67;10.38;;;22.40;51.90;;;;;;5050735;27;115241;-79
2023/09/13 05:11:03;;;;;;;13.52;9.68;;;22.50;51.70;;;;;;5033773;27;114332;-79
2023/09/13 05:13:33;;;;;;;15.38;10.07;;;22.70;51.00;;;;;;5051639;27;114074;-79
2023/09/13 05:16:00;;;;;;;15.18;10.52;;;22.80;50.00;;;;;;5049679;27;115020;-79
2023/09/13 05:18:28;;;;;;;15.02;9.50;;;22.90;50.00;;;;;;5049562;27;115887;-79
2023/09/13 05:20:55;;;;;;;15.25;10.13;;;22.90;49.30;;;;;;5032945;27;114352;-80
2023/09/13 05:23:22;;;;;;;16.73;9.73;;;22.90;50.40;;;;;;5033525;27;114434;-77
2023/09/13 05:25:49;;;;;;;16.45;9.32;;;23.10;50.40;;;;;;5050033;27;114951;-79
2023/09/13 05:28:16;;;;;;;16.58;10.00;;;23.30;48.90;;;;;;5049960;27;115236;-78
2023/09/13 05:30:47;;;;;;;13.93;9.68;;;23.40;48.10;;;;;;5050662;27;114337;-79
2023/09/13 05:33:14;;;;;;;17.67;9.15;;;23.60;48.30;;;;;;5051083;27;114193;-78
2023/09/13 05:35:41;;;;;;;14.70;9.65;;;23.70;47.40;;;;;;5015178;27;114984;-79
2023/09/13 05:38:08;;;;;;;14.93;9.07;;;23.70;46.90;;;;;;5048617;27;115736;-78
2023/09/13 05:40:36;;;;;;;17.13;9.70;;;23.70;47.60;;;;;;5050750;27;114373;-78
2023/09/13 05:43:03;;;;;;;14.68;9.40;;;23.70;47.60;;;;;;5050881;27;114433;-79
2023/09/13 05:45:30;;;;;;;16.42;9.52;;;23.80;47.30;;;;;;5049336;27;115538;-79
2023/09/13 05:47:59;;;;;;;14.52;9.45;;;23.80;46.70;;;;;;5031634;27;115026;-79
2023/09/13 05:50:26;;;;;;;11.30;9.20;;;23.80;46.90;;;;;;5016577;27;114210;-78
2023/09/13 05:52:54;;;;;;;13.50;8.93;;;23.80;47.00;;;;;;5016458;27;114444;-79
2023/09/13 05:55:21;;;;;;;15.90;9.70;;;23.80;47.30;;;;;;5031536;27;115047;-79
2023/09/13 05:57:50;;;;;;;12.48;9.00;;;23.90;46.40;;;;;;5049696;27;114618;-78
2023/09/13 06:00:18;;;;;;;15.02;9.07;;;23.90;46.30;;;;;;5032698;27;114321;-80
2023/09/13 06:02:46;;;;;;;14.68;9.10;;;23.90;47.50;;;;;;5016601;27;114443;-78
2023/09/13 06:05:13;;;;;;;15.82;9.48;;;24.00;46.50;;;;;;5031474;27;115541;-79
2023/09/13 06:07:40;;;;;;;14.50;9.30;;;24.00;46.10;;;;;;5031306;27;114785;-78
2023/09/13 06:10:07;;;;;;;11.90;8.48;;;24.00;46.40;;;;;;5049991;27;114215;-79
2023/09/13 06:12:34;;;;;;;12.48;8.45;;;24.00;47.40;;;;;;5032413;27;114337;-78
2023/09/13 06:15:01;;;;;;;15.90;10.27;;;24.20;47.10;;;;;;5030209;27;117017;-78
2023/09/13 06:17:28;;;;;;;15.82;9.40;;;24.30;46.70;;;;;;5013572;27;114585;-78
2023/09/13 06:19:56;;;;;;;17.33;9.63;;;24.30;46.30;;;;;;5049042;27;114187;-78
2023/09/13 06:22:23;;;;;;;17.17;9.93;;;24.30;46.20;;;;;;5032220;27;113985;-78
2023/09/13 06:24:50;;;;;;;18.23;10.25;;;24.30;45.80;;;;;;5013714;27;116053;-78
2023/09/13 06:27:18;;;;;;;13.52;8.93;;;24.30;45.90;;;;;;5048703;27;114872;-78
2023/09/13 06:29:45;;;;;;;16.13;9.35;;;24.30;46.20;;;;;;5049902;27;114640;-79
2023/09/13 06:32:12;;;;;;;12.93;8.73;;;24.30;46.30;;;;;;5050011;27;114084;-78
2023/09/13 06:34:59;;;;;;;16.08;9.52;;;24.30;47.10;;;;;;5048463;27;115169;-78
2023/09/13 06:37:26;;;;;;;18.75;9.27;;;24.30;46.30;;;;;;5013869;27;116140;-78
2023/09/13 06:39:54;;;;;;;16.77;9.52;;;24.30;46.50;;;;;;5049792;27;114566;-79
2023/09/13 06:42:21;;;;;;;15.35;9.32;;;24.40;46.50;;;;;;5049937;27;114514;-79
2023/09/13 06:44:55;;;;;;;12.40;9.00;;;24.40;46.10;;;;;;5030723;27;115575;-80
2023/09/13 06:47:42;;;;;;;15.88;10.00;;;24.40;46.60;;;;;;5048831;27;114680;-80
2023/09/13 06:50:09;;;;;;;15.23;9.07;;;24.40;46.60;;;;;;5014091;27;114430;-79
2023/09/13 06:52:39;;;;;;;17.33;9.20;;;24.40;46.10;;;;;;5049822;27;114327;-79
2023/09/13 06:55:27;;;;;;;13.15;9.10;;;24.50;46.30;;;;;;5046990;27;115027;-79
2023/09/13 06:57:56;;;;;;;14.70;9.05;;;24.60;46.60;;;;;;5030908;27;114667;-78
2023/09/13 07:00:29;;;;;;;13.43;9.15;;;24.60;46.00;;;;;;5014226;27;114280;-79
2023/09/13 07:03:14;;;;;;;13.70;8.98;;;24.70;45.80;;;;;;5049410;27;114889;-79
2023/09/13 07:05:42;;;;;;;23.60;9.90;;;24.70;45.90;;;;;;5030225;27;115003;-79
2023/09/13 07:08:09;;;;;;;30.00;10.00;;;24.70;46.10;;;;;;5048495;27;114831;-79
2023/09/13 07:10:37;;;;;;;15.15;9.45;;;24.80;45.80;;;;;;5049086;27;114149;-79
2023/09/13 07:13:05;;;;;;;23.00;9.25;;;24.90;45.40;;;;;;5014284;27;114585;-78
2023/09/13 07:15:32;;;;;;;33.10;19.98;;;25.00;45.40;;;;;;5048940;27;114939;-79
2023/09/13 07:17:59;;;;;;;17.27;10.40;;;25.00;45.30;;;;;;5012557;27;114270;-79
2023/09/13 07:20:27;;;;;;;16.52;9.30;;;25.10;45.10;;;;;;5030885;27;114280;-79
2023/09/13 07:22:54;;;;;;;14.73;8.65;;;25.20;45.10;;;;;;5048306;27;114444;-79
2023/09/13 07:25:21;;;;;;;21.13;9.48;;;25.20;45.40;;;;;;5048336;27;115004;-78
2023/09/13 07:27:48;;;;;;;32.13;10.63;;;25.30;45.20;;;;;;5033251;27;115237;-78
2023/09/13 07:30:16;;;;;;;16.13;8.15;;;25.30;45.10;;;;;;5049346;27;114349;-78
2023/09/13 07:32:43;;;;;;;28.27;9.93;;;25.40;44.90;;;;;;5031795;27;114452;-78
2023/09/13 07:35:10;;;;;;;15.45;9.00;;;25.50;45.00;;;;;;5046971;27;115397;-78
2023/09/13 07:37:37;;;;;;;18.23;7.97;;;25.70;45.10;;;;;;5029894;27;114852;-78
2023/09/13 07:40:04;;;;;;;16.30;8.27;;;25.70;44.50;;;;;;5030497;27;114706;-79
2023/09/13 07:42:32;;;;;;;15.40;8.38;;;25.80;44.70;;;;;;5030715;27;114566;-79
2023/09/13 07:44:59;;;;;;;15.55;8.65;;;25.90;44.00;;;;;;5029263;27;114969;-77
2023/09/13 07:47:28;;;;;;;21.23;8.63;;;26.00;44.30;;;;;;5047596;27;114641;-79
2023/09/13 07:49:59;;;;;;;14.90;8.43;;;26.10;44.30;;;;;;5048372;27;114166;-79
2023/09/13 07:52:26;;;;;;;17.98;9.07;;;26.20;44.20;;;;;;5030805;27;114214;-80
2023/09/13 07:55:08;;;;;;;13.63;8.60;;;26.30;43.90;;;;;;5002750;27;114980;-80
2023/09/13 07:57:36;;;;;;;13.82;8.30;;;26.30;44.20;;;;;;5029629;27;115339;-78
2023/09/13 08:00:06;;;;;;;15.65;7.95;;;26.40;43.90;;;;;;5049209;27;114305;-80
2023/09/13 08:02:37;;;;;;;13.23;8.15;;;26.60;43.60;;;;;;5031738;27;114417;-79
2023/09/13 08:05:05;;;;;;;19.85;8.75;;;26.70;43.40;;;;;;5047098;27;117408;-78
2023/09/13 08:07:32;;;;;;;14.57;8.75;;;26.80;43.10;;;;;;5029333;27;115192;-79
2023/09/13 08:10:02;;;;;;;18.80;8.57;;;26.80;43.50;;;;;;5030658;27;114385;-78
2023/09/13 08:12:30;;;;;;;17.55;7.80;;;26.90;43.00;;;;;;5014610;27;114465;-79
2023/09/13 08:14:57;;;;;;;11.85;7.57;;;27.00;42.70;;;;;;5029897;27;114906;-79
2023/09/13 08:17:24;;;;;;;18.02;8.70;;;27.00;42.80;;;;;;5046963;27;115809;-79
2023/09/13 08:19:51;;;;;;;20.13;8.98;;;27.20;42.60;;;;;;5048632;27;114343;-79
2023/09/13 08:22:18;;;;;;;18.85;9.45;;;27.30;42.50;;;;;;5048430;27;114129;-78
2023/09/13 08:25:06;;;;;;;15.10;8.27;;;27.30;42.90;;;;;;5032130;27;115016;-78
2023/09/13 08:27:35;;;;;;;17.50;8.65;;;27.50;42.50;;;;;;5012997;27;114585;-79
2023/09/13 08:30:04;;;;;;;18.00;8.88;;;27.60;42.40;;;;;;5048312;27;114077;-79
2023/09/13 08:32:31;;;;;;;16.65;8.68;;;27.60;42.70;;;;;;5029323;27;114286;-79
2023/09/13 08:34:58;;;;;;;13.38;8.48;;;27.80;42.30;;;;;;5012462;27;114995;-79
2023/09/13 08:37:25;;;;;;;27.95;20.05;;;27.80;41.80;;;;;;5011075;27;114651;-79
2023/09/13 08:39:56;;;;;;;17.33;8.88;;;27.80;42.60;;;;;;4998485;27;114574;-79
2023/09/13 08:42:28;;;;;;;14.25;9.45;;;27.80;42.30;;;;;;5048778;27;114371;-79
2023/09/13 08:44:55;;;;;;;14.63;8.35;;;28.00;41.50;;;;;;5029759;27;114860;-79
2023/09/13 08:47:22;;;;;;;17.85;8.10;;;28.00;41.70;;;;;;5012299;27;114623;-79
2023/09/13 08:49:50;;;;;;;14.25;8.18;;;28.10;41.40;;;;;;5013553;27;114732;-79
2023/09/13 08:52:17;;;;;;;17.67;7.90;;;28.10;40.70;;;;;;5029903;27;114508;-79
2023/09/13 08:54:44;;;;;;;14.27;7.80;;;28.00;40.70;;;;;;5013053;27;115155;-79
2023/09/13 08:57:25;;;;;;;15.18;8.20;;;27.90;40.90;;;;;;5032313;27;114657;-79
2023/09/13 08:59:53;;;;;;;13.85;8.60;;;28.00;41.10;;;;;;5029819;27;114347;-79
2023/09/13 09:02:21;;;;;;;15.00;7.93;;;28.10;41.40;;;;;;5048016;27;114317;-80
2023/09/13 09:04:48;;;;;;;15.40;8.02;;;28.20;40.30;;;;;;5011947;27;115498;-79
2023/09/13 09:07:17;;;;;;;12.15;8.38;;;28.30;39.70;;;;;;5011700;27;115585;-80
2023/09/13 09:09:46;;;;;;;17.67;8.50;;;28.30;39.60;;;;;;5013022;27;114423;-80
2023/09/13 09:12:17;;;;;;;16.38;8.02;;;28.30;39.60;;;;;;5029690;27;114298;-80
2023/09/13 09:14:45;;;;;;;16.90;8.82;;;28.30;39.80;;;;;;4994952;27;115156;-79
2023/09/13 09:17:14;;;;;;;12.57;8.13;;;28.40;39.40;;;;;;5011593;27;114849;-78
2023/09/13 09:19:41;;;;;;;13.75;7.90;;;28.40;40.10;;;;;;5013071;27;114288;-78
2023/09/13 09:22:08;;;;;;;14.25;8.52;;;28.50;39.70;;;;;;5047811;27;114351;-78
2023/09/13 09:24:35;;;;;;;15.10;8.27;;;28.50;40.10;;;;;;5046610;27;115016;-79
2023/09/13 09:27:02;;;;;;;16.38;10.00;;;28.60;40.00;;;;;;5046958;27;114807;-79
2023/09/13 09:29:39;;;;;;;13.05;8.20;;;28.70;39.70;;;;;;4996076;27;114262;-78
2023/09/13 09:32:10;;;;;;;15.57;9.30;;;28.80;39.60;;;;;;4980668;27;114404;-77
2023/09/13 09:34:39;;;;;;;14.57;8.50;;;28.80;39.80;;;;;;4995396;27;114853;-78
2023/09/13 09:37:07;;;;;;;12.38;8.60;;;28.90;39.60;;;;;;5012084;27;114649;-80
2023/09/13 09:39:39;;;;;;;12.70;8.48;;;29.00;39.80;;;;;;5028591;27;114208;-77
2023/09/13 09:42:06;;;;;;;17.15;10.57;;;29.10;39.80;;;;;;5050587;27;114237;-78
2023/09/13 09:44:33;;;;;;;12.38;8.45;;;29.00;39.80;;;;;;4997845;27;117544;-78
2023/09/13 09:47:00;;;;;;;11.90;8.40;;;29.00;39.60;;;;;;5031481;27;115264;-80
2023/09/13 09:49:28;;;;;;;11.40;9.18;;;29.10;39.70;;;;;;5050650;27;114427;-79
2023/09/13 09:51:55;;;;;;;12.25;8.35;;;29.10;39.60;;;;;;4999110;27;114301;-80
2023/09/13 09:54:22;;;;;;;11.82;8.70;;;29.10;39.30;;;;;;5049261;27;115310;-79
2023/09/13 09:56:49;;;;;;;15.65;8.57;;;29.20;39.60;;;;;;5031075;27;115852;-78
2023/09/13 09:59:16;;;;;;;15.50;8.95;;;29.20;39.30;;;;;;5050789;27;114322;-78
2023/09/13 10:01:45;;;;;;;14.57;8.77;;;29.20;39.50;;;;;;5016226;27;114420;-78
2023/09/13 10:04:13;;;;;;;20.35;9.35;;;29.30;39.90;;;;;;5049442;27;114860;-79
2023/09/13 10:06:55;;;;;;;12.30;8.90;;;29.30;39.70;;;;;;5049812;27;115052;-79
2023/09/13 10:09:23;;;;;;;17.40;10.23;;;29.40;39.60;;;;;;5050530;27;114242;-79
2023/09/13 10:11:57;;;;;;;12.95;9.05;;;29.30;39.80;;;;;;5050092;27;114337;-78
2023/09/13 10:14:27;;;;;;;11.55;9.00;;;29.40;39.50;;;;;;5031319;27;115557;-79
2023/09/13 10:16:54;;;;;;;12.40;9.30;;;29.40;39.40;;;;;;5027434;28;114570;-79
2023/09/13 10:19:28;;;;;;;17.00;10.23;;;29.40;39.80;;;;;;5028427;28;114241;-79
2023/09/13 10:21:55;;;;;;;10.80;8.45;;;29.40;40.10;;;;;;5028557;28;114397;-79
2023/09/13 10:24:24;;;;;;;13.32;10.00;;;29.50;39.90;;;;;;5028743;27;114964;-80
2023/09/13 10:26:52;;;;;;;11.40;8.95;;;29.40;40.00;;;;;;5027193;28;114839;-80
2023/09/13 10:29:38;;;;;;;12.32;9.38;;;29.40;39.80;;;;;;5028577;28;114135;-78
2023/09/13 10:32:07;;;;;;;12.10;8.75;;;29.50;40.00;;;;;;5012186;28;114467;-79
2023/09/13 10:34:35;;;;;;;10.93;9.20;;;29.50;40.30;;;;;;5028419;27;116525;-80
2023/09/13 10:37:09;;;;;;;13.27;9.45;;;29.50;40.50;;;;;;5027488;28;114684;-79
2023/09/13 10:39:44;;;;;;;10.98;9.55;;;29.60;40.70;;;;;;5028035;28;114274;-79
2023/09/13 10:42:11;;;;;;;12.55;10.10;;;29.50;40.90;;;;;;5028542;28;114184;-79
2023/09/13 10:44:38;;;;;;;13.05;9.43;;;29.40;40.90;;;;;;5010578;28;114879;-80
2023/09/13 10:47:06;;;;;;;13.88;9.48;;;29.40;40.70;;;;;;4994396;28;114683;-79
2023/09/13 10:49:35;;;;;;;14.02;10.02;;;29.30;41.20;;;;;;5028202;28;114330;-79
2023/09/13 10:52:03;;;;;;;16.10;10.10;;;29.30;41.10;;;;;;5027957;27;114336;-79
2023/09/13 10:54:30;;;;;;;13.95;9.77;;;29.30;40.90;;;;;;5026941;28;114799;-79
2023/09/13 10:56:58;;;;;;;13.27;9.70;;;29.40;40.70;;;;;;5028497;28;114871;-79
2023/09/13 10:59:25;;;;;;;11.52;10.00;;;29.40;40.70;;;;;;4995363;28;114441;-78
2023/09/13 11:01:52;;;;;;;19.63;10.15;;;29.40;40.90;;;;;;5027956;28;114310;-79
2023/09/13 11:04:20;;;;;;;14.77;9.27;;;29.40;40.60;;;;;;5026879;28;115341;-80
2023/09/13 11:06:48;;;;;;;10.38;9.00;;;29.40;40.40;;;;;;5026844;28;116353;-80
2023/09/13 11:09:16;;;;;;;14.25;10.73;;;29.50;40.50;;;;;;4994377;28;114228;-81
2023/09/13 11:11:53;;;;;;;10.88;9.77;;;29.50;40.50;;;;;;5011043;28;114285;-79
2023/09/13 11:14:24;;;;;;;13.32;9.98;;;29.60;40.30;;;;;;5028069;27;115025;-79
2023/09/13 11:16:54;;;;;;;12.55;10.35;;;29.50;40.30;;;;;;5043205;27;115086;-78
2023/09/13 11:19:26;;;;;;;13.55;9.25;;;29.50;40.00;;;;;;5017068;27;114509;-78
2023/09/13 11:22:02;;;;;;;13.77;10.38;;;29.40;40.30;;;;;;5049250;27;114510;-80
2023/09/13 11:24:40;;;;;;;13.18;10.48;;;29.40;40.30;;;;;;5012912;27;116321;-78
2023/09/13 11:27:25;;;;;;;12.13;9.30;;;29.50;39.80;;;;;;5047786;27;117479;-78
2023/09/13 11:29:57;;;;;;;13.52;9.70;;;29.40;39.60;;;;;;5031217;27;114476;-78
2023/09/13 11:32:26;;;;;;;11.75;9.65;;;29.40;39.40;;;;;;5031514;27;114401;-79
2023/09/13 11:34:58;;;;;;;13.77;9.48;;;29.40;40.10;;;;;;5013728;27;115472;-79
2023/09/13 11:37:26;;;;;;;14.32;9.02;;;29.50;40.10;;;;;;5048088;27;114604;-79
2023/09/13 11:40:10;;;;;;;11.90;8.70;;;29.50;39.80;;;;;;5030902;27;114459;-80
2023/09/13 11:42:39;;;;;;;16.23;8.70;;;29.60;40.00;;;;;;5031495;27;114698;-79
2023/09/13 11:45:30;;;;;;;11.38;9.30;;;29.50;40.10;;;;;;5047879;27;115069;-79
2023/09/13 11:48:10;;;;;;;11.65;8.70;;;29.50;39.80;;;;;;5015036;27;115890;-79
2023/09/13 11:50:48;;;;;;;12.32;8.45;;;29.50;39.50;;;;;;5031180;27;114412;-77
2023/09/13 11:53:19;;;;;;;12.13;9.27;;;29.50;39.60;;;;;;5013739;27;114160;-78
2023/09/13 11:56:02;;;;;;;12.63;9.07;;;29.40;39.80;;;;;;4997711;27;115053;-78
2023/09/13 11:58:41;;;;;;;16.35;8.98;;;29.30;40.10;;;;;;5029465;27;114740;-78
2023/09/13 12:01:22;;;;;;;13.18;8.70;;;29.30;40.10;;;;;;5017166;27;114544;-78
2023/09/13 12:03:52;;;;;;;9.90;8.55;;;29.20;40.50;;;;;;5047881;27;114336;-78
2023/09/13 12:06:49;;;;;;;12.38;8.77;;;29.20;40.20;;;;;;5047746;27;114946;-78
2023/09/13 12:09:20;;;;;;;10.95;8.35;;;29.10;40.50;;;;;;5030241;27;114651;-78
2023/09/13 12:11:56;;;;;;;11.95;8.90;;;29.10;40.10;;;;;;5031467;27;114378;-79
2023/09/13 12:14:31;;;;;;;14.23;8.50;;;29.00;40.10;;;;;;5032047;27;114444;-78
2023/09/13 12:17:19;;;;;;;11.23;8.25;;;28.90;40.50;;;;;;5046871;27;115145;-78
2023/09/13 12:19:47;;;;;;;11.07;8.15;;;28.90;40.50;;;;;;5028995;27;115306;-78
2023/09/13 12:22:15;;;;;;;13.45;9.23;;;28.90;40.40;;;;;;5030081;27;114401;-78
2023/09/13 12:24:50;;;;;;;24.73;8.90;;;28.90;40.40;;;;;;5030405;27;114916;-78
2023/09/13 12:27:18;;;;;;;11.38;8.35;;;29.00;40.20;;;;;;5029237;27;115706;-78
2023/09/13 12:29:46;;;;;;;12.45;8.63;;;28.90;40.20;;;;;;5047126;27;114683;-79
2023/09/13 12:32:15;;;;;;;11.38;8.50;;;28.90;39.90;;;;;;5048259;27;114522;-78
2023/09/13 12:34:42;;;;;;;15.77;8.88;;;29.00;40.10;;;;;;5030285;27;114048;-78